Flight Track Log - Related Links

Times and Time Zones

All times are in EDT time to prevent confusion due to time zone crossing. See the RPA3275 flight status page for this flight to view local times or setup timezone preferences in your user account.

Time Position Orientation Groundspeed Altitude Reporting Facility
EDT Latitude Longitude Course Direction KTS MPH feet Rate Location/Type
Tue 07:01:39 AM 42.7297 -73.8081 220° Southwest 150 173 1,300  Level Boston Center
Tue 07:02:46 AM 42.6961 -73.8442 218° Southwest 214 246 4,000 2,656 Climbing Boston Center
Tue 07:03:50 AM 42.7053 -73.9319 278° West 251 289 7,100 3,000 Climbing Boston Center
Tue 07:04:00 AM 42.7333 -74.2467 270° West  Level FlightAware Approximate
Tue 07:04:50 AM 42.7164 -74.0311 279° West 257 296 10,200  Level Boston Center
Tue 07:05:00 AM 42.7065 -74.3448 220° Southwest  Level FlightAware Approximate
Tue 07:05:50 AM 42.7275 -74.1331 278° West 265 305 13,000  Level Boston Center
Tue 07:06:00 AM 42.6433 -74.4160 220° Southwest  Level FlightAware Approximate
Tue 07:06:50 AM 42.7400 -74.2606 278° West 300 345 15,800  Level Boston Center
Tue 07:07:50 AM 42.7094 -74.3503 245° Southwest 296 341 16,000 100 Climbing Boston Center
Tue 07:08:50 AM 42.6394 -74.4300 220° Southwest 290 334 16,000 1,150 Level Boston Center
Tue 07:09:50 AM 42.5775 -74.5011 220° Southwest 310 357 18,300 1,500 Climbing Boston Center
Tue 07:10:50 AM 42.5072 -74.5806 220° Southwest 315 362 19,000 350 Climbing Boston Center
Tue 07:11:50 AM 42.4497 -74.6489 221° Southwest 315 362 19,000  Level Boston Center
Tue 07:12:50 AM 42.3772 -74.7278 219° Southwest 315 362 19,000  Level Boston Center
Tue 07:15:07 AM 42.2369 -74.8911 221° Southwest 309 356 19,000  Level New York Center
Tue 07:16:08 AM 42.1742 -74.9625 220° Southwest 309 356 19,000  Level New York Center
Tue 07:17:06 AM 42.1036 -75.0167 210° Southwest 314 361 19,000  Level New York Center
Tue 07:18:06 AM 42.0261 -75.0872 214° Southwest 309 356 19,000  Level New York Center
Tue 07:19:07 AM 41.9553 -75.1439 211° Southwest 309 356 19,000  Level New York Center
Tue 07:20:05 AM 41.8908 -75.1981 212° Southwest 309 356 19,000  Level New York Center
Tue 07:21:06 AM 41.8158 -75.2572 210° Southwest 314 361 19,000 -344 Level New York Center
Tue 07:22:07 AM 41.7361 -75.3214 211° Southwest 309 356 18,300 -1,100 Descending New York Center
Tue 07:23:06 AM 41.6653 -75.3775 211° Southwest 309 356 16,800 -1,550 Descending New York Center
Tue 07:24:07 AM 41.6008 -75.4286 211° Southwest 309 356 15,200 -1,488 Descending New York Center
Tue 07:25:07 AM 41.5319 -75.4847 211° Southwest 309 356 13,800 -1,576 Descending New York Center
Tue 07:26:05 AM 41.4589 -75.5433 211° Southwest 296 341 12,100 -915 Descending New York Center
Tue 07:27:05 AM 41.3942 -75.5967 212° Southwest 286 329 12,000 -50 Descending New York Center
Tue 07:28:06 AM 41.3297 -75.6447 209° Southwest 286 329 12,000  Level New York Center
Tue 07:29:07 AM 41.2528 -75.6942 206° Southwest 286 329 12,000  Level New York Center
Tue 07:30:07 AM 41.1786 -75.6722 167° South 281 323 12,000  Level New York Center
Tue 07:31:08 AM 41.0964 -75.6469 167° South 289 333 12,000  Level New York Center
Tue 07:32:05 AM 41.0081 -75.6161 165° South 305 351 12,000  Level New York Center
Tue 07:33:05 AM 40.9258 -75.5908 167° South 311 358 12,000  Level New York Center
Tue 07:34:06 AM 40.8436 -75.5631 166° South 311 358 12,000  Level New York Center
Tue 07:35:07 AM 40.7614 -75.5356 166° South 311 358 12,000  Level New York Center
Tue 07:36:07 AM 40.6894 -75.5111 166° South 311 358 12,000  Level New York Center
Tue 07:37:07 AM 40.6092 -75.4867 167° South 311 358 12,000 -356 Level New York Center
Tue 07:38:05 AM 40.5269 -75.4564 164° South 304 350 11,300 -1,160 Descending New York Center
Tue 07:39:06 AM 40.4489 -75.4292 165° South 304 350 9,700 -1,537 Descending New York Center
Tue 07:40:06 AM 40.3733 -75.3886 158° South 299 344 8,200 -1,736 Descending New York Center
Tue 07:41:07 AM 40.2917 -75.3425 157° South 294 338 6,200 -1,109 Descending New York Center
Tue 07:42:05 AM 40.2225 -75.2997 155° Southeast 283 326 6,000 -101 Descending New York Center
Tue 07:43:06 AM 40.1469 -75.2594 158° South 290 334 6,000  Level New York Center
Tue 07:44:07 AM 40.0856 -75.2258 157° South 285 328 6,000  Level New York Center
Tue 07:45:02 AM 40.0167 -75.1833 155° Southeast 219 252 6,000  Level Philadelphia TRACON
Tue 07:46:01 AM 39.9833 -75.1333 131° Southeast 236 272 6,000 -480 Level Philadelphia TRACON
Tue 07:47:07 AM 40.0000 -75.0500 75° East 220 253 5,000 -476 Descending Philadelphia TRACON
Tue 07:48:07 AM 40.0167 -74.9667 75° East 221 254 5,000 -200 Level Philadelphia TRACON
Tue 07:49:07 AM 40.0167 -74.9000 90° East 204 235 4,600 -500 Descending Philadelphia TRACON
Tue 07:50:07 AM 39.9667 -74.8833 166° South 180 207 4,000 -300 Descending Philadelphia TRACON
Tue 07:51:07 AM 39.9333 -74.9167 217° Southwest 165 190 4,000 -143 Level Philadelphia TRACON
Tue 07:52:13 AM 39.9167 -74.9833 252° West 162 186 3,700 -524 Descending Philadelphia TRACON
Tue 07:53:13 AM 39.9167 -75.0333 270° West 159 183 2,900 -800 Descending Philadelphia TRACON

Login

Don't have an account? Register now (free) for customized features, flight alerts, and more!